sensor_id;sensor_type;location;lat;lon;timestamp;pressure;altitude;pressure_sealevel;temperature;humidity
48718;BME280;34521;33.042;-96.586;2023-10-31T00:02:21;100752.82;;;21.50;26.93
48718;BME280;34521;33.042;-96.586;2023-10-31T00:04:46;100760.99;;;21.70;26.74
48718;BME280;34521;33.042;-96.586;2023-10-31T00:07:11;100761.05;;;21.06;27.45
48718;BME280;34521;33.042;-96.586;2023-10-31T00:09:36;100760.55;;;20.91;27.06
48718;BME280;34521;33.042;-96.586;2023-10-31T00:12:01;100761.57;;;21.38;27.15
48718;BME280;34521;33.042;-96.586;2023-10-31T00:14:27;100762.70;;;21.06;27.28
48718;BME280;34521;33.042;-96.586;2023-10-31T00:16:52;100764.06;;;20.65;27.66
48718;BME280;34521;33.042;-96.586;2023-10-31T00:19:16;100765.60;;;20.77;27.57
48718;BME280;34521;33.042;-96.586;2023-10-31T00:21:42;100772.90;;;20.91;27.44
48718;BME280;34521;33.042;-96.586;2023-10-31T00:24:07;100776.07;;;20.89;27.45
48718;BME280;34521;33.042;-96.586;2023-10-31T00:26:31;100787.86;;;17.66;31.54
48718;BME280;34521;33.042;-96.586;2023-10-31T00:28:57;100781.46;;;17.05;33.61
48718;BME280;34521;33.042;-96.586;2023-10-31T00:31:22;100783.51;;;16.53;34.33
48718;BME280;34521;33.042;-96.586;2023-10-31T00:33:47;100782.74;;;16.56;34.94
48718;BME280;34521;33.042;-96.586;2023-10-31T00:36:12;100782.53;;;16.38;34.73
48718;BME280;34521;33.042;-96.586;2023-10-31T00:38:37;100780.72;;;19.33;30.66
48718;BME280;34521;33.042;-96.586;2023-10-31T00:41:02;100778.14;;;19.84;29.19
48718;BME280;34521;33.042;-96.586;2023-10-31T00:43:27;100780.08;;;20.50;28.46
48718;BME280;34521;33.042;-96.586;2023-10-31T00:45:52;100780.45;;;20.81;27.61
48718;BME280;34521;33.042;-96.586;2023-10-31T00:48:17;100783.21;;;20.88;27.51
48718;BME280;34521;33.042;-96.586;2023-10-31T00:50:42;100791.67;;;20.60;27.78
48718;BME280;34521;33.042;-96.586;2023-10-31T00:53:08;100790.00;;;20.80;27.49
48718;BME280;34521;33.042;-96.586;2023-10-31T00:55:32;100794.08;;;19.30;29.14
48718;BME280;34521;33.042;-96.586;2023-10-31T00:57:57;100799.09;;;20.97;27.70
48718;BME280;34521;33.042;-96.586;2023-10-31T01:00:22;100796.21;;;20.89;28.08
48718;BME280;34521;33.042;-96.586;2023-10-31T01:02:47;100791.62;;;21.81;27.03
48718;BME280;34521;33.042;-96.586;2023-10-31T01:05:12;100803.83;;;22.27;26.56
48718;BME280;34521;33.042;-96.586;2023-10-31T01:07:37;100810.28;;;22.49;26.47
48718;BME280;34521;33.042;-96.586;2023-10-31T01:10:03;100809.87;;;22.73;25.96
48718;BME280;34521;33.042;-96.586;2023-10-31T01:12:27;100812.28;;;22.74;26.28
48718;BME280;34521;33.042;-96.586;2023-10-31T01:14:53;100814.16;;;22.51;26.32
48718;BME280;34521;33.042;-96.586;2023-10-31T01:17:18;100813.60;;;22.03;27.01
48718;BME280;34521;33.042;-96.586;2023-10-31T01:19:43;100815.69;;;22.07;26.88
48718;BME280;34521;33.042;-96.586;2023-10-31T01:22:08;100819.01;;;21.73;27.13
48718;BME280;34521;33.042;-96.586;2023-10-31T01:24:34;100818.90;;;21.81;27.13
48718;BME280;34521;33.042;-96.586;2023-10-31T01:26:58;100821.74;;;21.73;27.16
48718;BME280;34521;33.042;-96.586;2023-10-31T01:29:23;100823.50;;;22.07;26.83
48718;BME280;34521;33.042;-96.586;2023-10-31T01:31:48;100821.36;;;22.04;27.12
48718;BME280;34521;33.042;-96.586;2023-10-31T01:34:13;100824.96;;;21.58;27.52
48718;BME280;34521;33.042;-96.586;2023-10-31T01:36:38;100827.03;;;21.13;27.67
48718;BME280;34521;33.042;-96.586;2023-10-31T01:39:04;100830.62;;;20.73;28.07
48718;BME280;34521;33.042;-96.586;2023-10-31T01:41:29;100831.80;;;21.12;27.69
48718;BME280;34521;33.042;-96.586;2023-10-31T01:43:53;100835.76;;;21.15;27.83
48718;BME280;34521;33.042;-96.586;2023-10-31T01:46:19;100837.68;;;20.63;28.39
48718;BME280;34521;33.042;-96.586;2023-10-31T01:48:44;100835.62;;;20.58;28.36
48718;BME280;34521;33.042;-96.586;2023-10-31T01:51:10;100835.84;;;19.73;29.29
48718;BME280;34521;33.042;-96.586;2023-10-31T01:53:34;100836.73;;;20.06;28.95
48718;BME280;34521;33.042;-96.586;2023-10-31T01:56:00;100838.80;;;19.73;29.57
48718;BME280;34521;33.042;-96.586;2023-10-31T01:58:30;100841.59;;;19.63;29.72
48718;BME280;34521;33.042;-96.586;2023-10-31T02:00:49;100840.95;;;19.39;29.69
48718;BME280;34521;33.042;-96.586;2023-10-31T02:03:14;100843.89;;;20.91;28.25
48718;BME280;34521;33.042;-96.586;2023-10-31T02:05:39;100841.28;;;21.62;27.57
48718;BME280;34521;33.042;-96.586;2023-10-31T02:08:06;100843.18;;;22.22;26.77
48718;BME280;34521;33.042;-96.586;2023-10-31T02:10:29;100843.37;;;22.38;26.55
48718;BME280;34521;33.042;-96.586;2023-10-31T02:12:54;100846.29;;;22.03;26.88
48718;BME280;34521;33.042;-96.586;2023-10-31T02:15:19;100849.38;;;21.12;27.81
48718;BME280;34521;33.042;-96.586;2023-10-31T02:17:44;100849.15;;;21.09;27.84
48718;BME280;34521;33.042;-96.586;2023-10-31T02:20:10;100848.72;;;20.47;28.29
48718;BME280;34521;33.042;-96.586;2023-10-31T02:22:34;100847.58;;;20.45;28.50
48718;BME280;34521;33.042;-96.586;2023-10-31T02:24:59;100850.38;;;20.41;28.49
48718;BME280;34521;33.042;-96.586;2023-10-31T02:27:24;100853.70;;;21.20;27.98
48718;BME280;34521;33.042;-96.586;2023-10-31T02:29:49;100852.77;;;21.66;27.22
48718;BME280;34521;33.042;-96.586;2023-10-31T02:32:15;100850.62;;;22.47;26.46
48718;BME280;34521;33.042;-96.586;2023-10-31T02:34:39;100850.64;;;22.34;26.29
48718;BME280;34521;33.042;-96.586;2023-10-31T02:37:05;100847.65;;;22.99;26.18
48718;BME280;34521;33.042;-96.586;2023-10-31T02:39:29;100849.46;;;22.69;26.27
48718;BME280;34521;33.042;-96.586;2023-10-31T02:41:54;100847.38;;;23.04;26.08
48718;BME280;34521;33.042;-96.586;2023-10-31T02:44:20;100847.48;;;23.41;25.55
48718;BME280;34521;33.042;-96.586;2023-10-31T02:46:44;100845.83;;;22.48;26.34
48718;BME280;34521;33.042;-96.586;2023-10-31T02:49:10;100847.77;;;22.36;26.44
48718;BME280;34521;33.042;-96.586;2023-10-31T02:51:35;100844.42;;;22.85;26.36
48718;BME280;34521;33.042;-96.586;2023-10-31T02:54:00;100849.56;;;22.24;26.73
48718;BME280;34521;33.042;-96.586;2023-10-31T02:56:25;100847.96;;;22.40;26.81
48718;BME280;34521;33.042;-96.586;2023-10-31T02:58:50;100848.89;;;22.34;26.64
48718;BME280;34521;33.042;-96.586;2023-10-31T03:01:15;100849.93;;;22.09;27.10
48718;BME280;34521;33.042;-96.586;2023-10-31T03:03:40;100853.54;;;22.44;26.51
48718;BME280;34521;33.042;-96.586;2023-10-31T03:06:06;100857.05;;;22.46;26.77
48718;BME280;34521;33.042;-96.586;2023-10-31T03:08:30;100859.06;;;22.32;27.00
48718;BME280;34521;33.042;-96.586;2023-10-31T03:10:55;100859.29;;;22.26;26.61
48718;BME280;34521;33.042;-96.586;2023-10-31T03:13:20;100860.63;;;22.93;26.19
48718;BME280;34521;33.042;-96.586;2023-10-31T03:15:46;100859.82;;;22.55;26.30
48718;BME280;34521;33.042;-96.586;2023-10-31T03:18:10;100863.70;;;21.63;26.98
48718;BME280;34521;33.042;-96.586;2023-10-31T03:20:35;100865.49;;;22.80;26.31
48718;BME280;34521;33.042;-96.586;2023-10-31T03:23:01;100872.83;;;22.90;26.07
48718;BME280;34521;33.042;-96.586;2023-10-31T03:25:25;100873.55;;;23.08;26.00
48718;BME280;34521;33.042;-96.586;2023-10-31T03:27:50;100871.30;;;23.16;26.01
48718;BME280;34521;33.042;-96.586;2023-10-31T03:30:15;100868.64;;;23.24;25.86
48718;BME280;34521;33.042;-96.586;2023-10-31T03:32:41;100868.49;;;23.72;25.76
48718;BME280;34521;33.042;-96.586;2023-10-31T03:35:07;100869.46;;;24.03;25.21
48718;BME280;34521;33.042;-96.586;2023-10-31T03:37:30;100868.78;;;23.57;25.68
48718;BME280;34521;33.042;-96.586;2023-10-31T03:39:55;100869.46;;;23.15;26.13
48718;BME280;34521;33.042;-96.586;2023-10-31T03:42:20;100868.53;;;22.88;26.52
48718;BME280;34521;33.042;-96.586;2023-10-31T03:44:46;100871.65;;;23.06;26.35
48718;BME280;34521;33.042;-96.586;2023-10-31T03:47:10;100873.54;;;22.45;26.68
48718;BME280;34521;33.042;-96.586;2023-10-31T03:49:39;100875.13;;;22.24;27.19
48718;BME280;34521;33.042;-96.586;2023-10-31T03:52:01;100878.48;;;21.97;27.06
48718;BME280;34521;33.042;-96.586;2023-10-31T03:54:26;100882.48;;;22.71;26.70
48718;BME280;34521;33.042;-96.586;2023-10-31T03:56:51;100886.13;;;22.78;26.45
48718;BME280;34521;33.042;-96.586;2023-10-31T03:59:16;100888.16;;;22.56;26.67
48718;BME280;34521;33.042;-96.586;2023-10-31T04:01:41;100889.46;;;23.07;26.25
48718;BME280;34521;33.042;-96.586;2023-10-31T04:04:06;100889.42;;;23.15;26.13
48718;BME280;34521;33.042;-96.586;2023-10-31T04:06:31;100894.72;;;23.36;25.67
48718;BME280;34521;33.042;-96.586;2023-10-31T04:08:56;100892.95;;;22.89;26.36
48718;BME280;34521;33.042;-96.586;2023-10-31T04:11:21;100892.97;;;23.25;26.11
48718;BME280;34521;33.042;-96.586;2023-10-31T04:13:46;100889.59;;;22.98;26.28
48718;BME280;34521;33.042;-96.586;2023-10-31T04:16:11;100890.10;;;23.05;26.23
48718;BME280;34521;33.042;-96.586;2023-10-31T04:18:37;100887.38;;;22.80;26.20
48718;BME280;34521;33.042;-96.586;2023-10-31T04:21:01;100890.55;;;23.28;25.89
48718;BME280;34521;33.042;-96.586;2023-10-31T04:23:26;100890.06;;;23.14;25.94
48718;BME280;34521;33.042;-96.586;2023-10-31T04:25:51;100896.76;;;21.47;27.36
48718;BME280;34521;33.042;-96.586;2023-10-31T04:28:16;100896.56;;;22.88;26.23
48718;BME280;34521;33.042;-96.586;2023-10-31T04:30:41;100898.49;;;23.28;25.84
48718;BME280;34521;33.042;-96.586;2023-10-31T04:33:06;100896.44;;;22.39;26.03
48718;BME280;34521;33.042;-96.586;2023-10-31T04:35:31;100897.31;;;23.16;25.94
48718;BME280;34521;33.042;-96.586;2023-10-31T04:37:56;100899.19;;;23.33;25.76
48718;BME280;34521;33.042;-96.586;2023-10-31T04:40:22;100896.22;;;23.05;25.86
48718;BME280;34521;33.042;-96.586;2023-10-31T04:42:47;100897.74;;;23.26;25.76
48718;BME280;34521;33.042;-96.586;2023-10-31T04:45:12;100896.76;;;23.30;25.77
48718;BME280;34521;33.042;-96.586;2023-10-31T04:47:37;100893.98;;;22.76;26.09
48718;BME280;34521;33.042;-96.586;2023-10-31T04:50:02;100895.78;;;21.83;26.98
48718;BME280;34521;33.042;-96.586;2023-10-31T04:52:27;100896.87;;;21.59;27.10
48718;BME280;34521;33.042;-96.586;2023-10-31T04:54:52;100895.44;;;21.15;27.50
48718;BME280;34521;33.042;-96.586;2023-10-31T04:57:17;100894.03;;;22.26;26.63
48718;BME280;34521;33.042;-96.586;2023-10-31T04:59:42;100896.38;;;22.83;25.97
48718;BME280;34521;33.042;-96.586;2023-10-31T05:02:07;100897.68;;;23.46;25.82
48718;BME280;34521;33.042;-96.586;2023-10-31T05:04:32;100898.50;;;23.35;25.62
48718;BME280;34521;33.042;-96.586;2023-10-31T05:06:57;100895.79;;;23.01;25.72
48718;BME280;34521;33.042;-96.586;2023-10-31T05:09:24;100896.30;;;23.01;25.89
48718;BME280;34521;33.042;-96.586;2023-10-31T05:11:47;100891.17;;;22.61;26.26
48718;BME280;34521;33.042;-96.586;2023-10-31T05:14:12;100888.13;;;22.13;26.59
48718;BME280;34521;33.042;-96.586;2023-10-31T05:16:41;100893.31;;;22.15;26.45
48718;BME280;34521;33.042;-96.586;2023-10-31T05:19:02;100894.35;;;21.72;26.92
48718;BME280;34521;33.042;-96.586;2023-10-31T05:21:27;100894.23;;;22.00;26.77
48718;BME280;34521;33.042;-96.586;2023-10-31T05:23:53;100889.49;;;22.50;26.09
48718;BME280;34521;33.042;-96.586;2023-10-31T05:26:18;100886.36;;;23.21;25.58
48718;BME280;34521;33.042;-96.586;2023-10-31T05:28:43;100883.46;;;23.51;25.26
48718;BME280;34521;33.042;-96.586;2023-10-31T05:31:08;100884.42;;;23.32;25.53
48718;BME280;34521;33.042;-96.586;2023-10-31T05:33:33;100882.21;;;22.99;25.79
48718;BME280;34521;33.042;-96.586;2023-10-31T05:35:58;100885.52;;;23.24;25.59
48718;BME280;34521;33.042;-96.586;2023-10-31T05:38:23;100883.62;;;22.71;26.04
48718;BME280;34521;33.042;-96.586;2023-10-31T05:40:49;100890.26;;;22.39;26.25
48718;BME280;34521;33.042;-96.586;2023-10-31T05:43:13;100892.34;;;22.15;26.52
48718;BME280;34521;33.042;-96.586;2023-10-31T05:45:38;100894.43;;;21.61;26.98
48718;BME280;34521;33.042;-96.586;2023-10-31T05:48:03;100894.41;;;21.85;26.63
48718;BME280;34521;33.042;-96.586;2023-10-31T05:50:28;100891.76;;;22.14;26.53
48718;BME280;34521;33.042;-96.586;2023-10-31T05:52:53;100888.81;;;22.97;25.76
48718;BME280;34521;33.042;-96.586;2023-10-31T05:55:18;100892.90;;;23.13;25.54
48718;BME280;34521;33.042;-96.586;2023-10-31T05:57:43;100894.18;;;22.99;25.71
48718;BME280;34521;33.042;-96.586;2023-10-31T06:00:09;100894.84;;;23.54;25.25
48718;BME280;34521;33.042;-96.586;2023-10-31T06:02:33;100901.98;;;23.24;25.49
48718;BME280;34521;33.042;-96.586;2023-10-31T06:04:58;100905.14;;;23.04;25.61
48718;BME280;34521;33.042;-96.586;2023-10-31T06:07:23;100905.04;;;22.67;25.90
48718;BME280;34521;33.042;-96.586;2023-10-31T06:09:48;100900.29;;;22.47;26.10
48718;BME280;34521;33.042;-96.586;2023-10-31T06:12:13;100899.04;;;22.16;26.34
48718;BME280;34521;33.042;-96.586;2023-10-31T06:14:38;100897.72;;;21.71;26.63
48718;BME280;34521;33.042;-96.586;2023-10-31T06:17:04;100904.13;;;20.86;27.15
48718;BME280;34521;33.042;-96.586;2023-10-31T06:19:29;100899.79;;;22.43;25.85
48718;BME280;34521;33.042;-96.586;2023-10-31T06:21:54;100903.45;;;22.98;25.82
48718;BME280;34521;33.042;-96.586;2023-10-31T06:24:19;100906.16;;;22.78;25.82
48718;BME280;34521;33.042;-96.586;2023-10-31T06:26:43;100910.88;;;23.38;25.20
48718;BME280;34521;33.042;-96.586;2023-10-31T06:29:09;100906.42;;;22.90;25.44
48718;BME280;34521;33.042;-96.586;2023-10-31T06:31:34;100905.33;;;22.88;25.67
48718;BME280;34521;33.042;-96.586;2023-10-31T06:33:59;100907.24;;;22.96;25.56
48718;BME280;34521;33.042;-96.586;2023-10-31T06:36:24;100907.69;;;22.12;26.34
48718;BME280;34521;33.042;-96.586;2023-10-31T06:38:49;100907.25;;;22.26;26.06
48718;BME280;34521;33.042;-96.586;2023-10-31T06:41:15;100910.61;;;21.86;26.32
48718;BME280;34521;33.042;-96.586;2023-10-31T06:43:39;100913.65;;;21.89;26.27
48718;BME280;34521;33.042;-96.586;2023-10-31T06:46:04;100913.98;;;22.24;26.08
48718;BME280;34521;33.042;-96.586;2023-10-31T06:48:29;100911.34;;;22.65;25.69
48718;BME280;34521;33.042;-96.586;2023-10-31T06:50:54;100906.12;;;22.92;25.48
48718;BME280;34521;33.042;-96.586;2023-10-31T06:53:19;100910.19;;;23.10;25.31
48718;BME280;34521;33.042;-96.586;2023-10-31T06:55:44;100910.99;;;22.98;25.37
48718;BME280;34521;33.042;-96.586;2023-10-31T06:58:09;100912.31;;;22.80;25.37
48718;BME280;34521;33.042;-96.586;2023-10-31T07:00:34;100911.12;;;22.57;25.58
48718;BME280;34521;33.042;-96.586;2023-10-31T07:02:59;100912.50;;;22.38;25.88
48718;BME280;34521;33.042;-96.586;2023-10-31T07:05:24;100915.47;;;21.69;26.34
48718;BME280;34521;33.042;-96.586;2023-10-31T07:07:49;100915.50;;;21.99;26.20
48718;BME280;34521;33.042;-96.586;2023-10-31T07:10:14;100916.73;;;21.54;26.58
48718;BME280;34521;33.042;-96.586;2023-10-31T07:12:39;100916.16;;;21.06;27.00
48718;BME280;34521;33.042;-96.586;2023-10-31T07:15:05;100916.85;;;22.41;25.93
48718;BME280;34521;33.042;-96.586;2023-10-31T07:17:29;100918.61;;;22.70;25.45
48718;BME280;34521;33.042;-96.586;2023-10-31T07:19:54;100919.31;;;23.30;25.16
48718;BME280;34521;33.042;-96.586;2023-10-31T07:22:20;100920.49;;;23.23;25.14
48718;BME280;34521;33.042;-96.586;2023-10-31T07:24:44;100921.51;;;23.03;25.24
48718;BME280;34521;33.042;-96.586;2023-10-31T07:27:10;100925.01;;;22.95;25.39
48718;BME280;34521;33.042;-96.586;2023-10-31T07:29:35;100928.72;;;22.62;25.64
48718;BME280;34521;33.042;-96.586;2023-10-31T07:32:00;100928.95;;;22.45;25.77
48718;BME280;34521;33.042;-96.586;2023-10-31T07:34:25;100931.69;;;22.53;25.79
48718;BME280;34521;33.042;-96.586;2023-10-31T07:36:50;100930.98;;;21.85;26.16
48718;BME280;34521;33.042;-96.586;2023-10-31T07:39:15;100931.55;;;21.19;26.73
48718;BME280;34521;33.042;-96.586;2023-10-31T07:41:40;100931.72;;;22.03;25.75
48718;BME280;34521;33.042;-96.586;2023-10-31T07:44:05;100932.57;;;22.32;25.74
48718;BME280;34521;33.042;-96.586;2023-10-31T07:46:30;100929.73;;;22.69;25.33
48718;BME280;34521;33.042;-96.586;2023-10-31T07:48:55;100931.08;;;23.30;24.96
48718;BME280;34521;33.042;-96.586;2023-10-31T07:51:20;100931.00;;;22.65;25.50
48718;BME280;34521;33.042;-96.586;2023-10-31T07:53:45;100932.62;;;22.75;25.47
48718;BME280;34521;33.042;-96.586;2023-10-31T07:56:14;100933.98;;;22.78;25.36
48718;BME280;34521;33.042;-96.586;2023-10-31T07:58:35;100931.63;;;22.73;25.62
48718;BME280;34521;33.042;-96.586;2023-10-31T08:01:00;100930.86;;;21.67;26.34
48718;BME280;34521;33.042;-96.586;2023-10-31T08:03:25;100932.90;;;21.40;26.36
48718;BME280;34521;33.042;-96.586;2023-10-31T08:05:50;100929.65;;;21.77;26.30
48718;BME280;34521;33.042;-96.586;2023-10-31T08:08:15;100928.69;;;22.21;25.43
48718;BME280;34521;33.042;-96.586;2023-10-31T08:10:40;100929.57;;;22.79;25.21
48718;BME280;34521;33.042;-96.586;2023-10-31T08:13:05;100927.23;;;22.67;25.32
48718;BME280;34521;33.042;-96.586;2023-10-31T08:15:30;100931.79;;;23.28;24.85
48718;BME280;34521;33.042;-96.586;2023-10-31T08:17:55;100934.55;;;23.03;25.06
48718;BME280;34521;33.042;-96.586;2023-10-31T08:20:20;100933.67;;;22.64;25.43
48718;BME280;34521;33.042;-96.586;2023-10-31T08:22:46;100938.26;;;22.16;25.83
48718;BME280;34521;33.042;-96.586;2023-10-31T08:25:10;100940.96;;;22.21;25.77
48718;BME280;34521;33.042;-96.586;2023-10-31T08:27:35;100939.25;;;21.96;25.95
48718;BME280;34521;33.042;-96.586;2023-10-31T08:30:00;100937.05;;;21.99;25.73
48718;BME280;34521;33.042;-96.586;2023-10-31T08:32:25;100942.85;;;21.44;26.24
48718;BME280;34521;33.042;-96.586;2023-10-31T08:34:50;100941.99;;;21.97;25.74
48718;BME280;34521;33.042;-96.586;2023-10-31T08:37:15;100939.89;;;22.21;25.62
48718;BME280;34521;33.042;-96.586;2023-10-31T08:39:40;100939.64;;;22.87;25.35
48718;BME280;34521;33.042;-96.586;2023-10-31T08:42:06;100943.41;;;22.62;25.31
48718;BME280;34521;33.042;-96.586;2023-10-31T08:44:30;100944.81;;;22.18;25.64
48718;BME280;34521;33.042;-96.586;2023-10-31T08:46:55;100940.33;;;21.90;25.99
48718;BME280;34521;33.042;-96.586;2023-10-31T08:49:20;100939.54;;;21.95;25.87
48718;BME280;34521;33.042;-96.586;2023-10-31T08:51:45;100936.20;;;21.87;25.80
48718;BME280;34521;33.042;-96.586;2023-10-31T08:54:11;100936.47;;;21.55;26.00
48718;BME280;34521;33.042;-96.586;2023-10-31T08:56:36;100935.66;;;21.75;25.92
48718;BME280;34521;33.042;-96.586;2023-10-31T08:59:01;100936.24;;;22.48;25.59
48718;BME280;34521;33.042;-96.586;2023-10-31T09:01:27;100935.24;;;22.78;25.10
48718;BME280;34521;33.042;-96.586;2023-10-31T09:03:51;100935.78;;;23.15;24.76
48718;BME280;34521;33.042;-96.586;2023-10-31T09:06:16;100938.29;;;22.88;24.90
48718;BME280;34521;33.042;-96.586;2023-10-31T09:08:41;100934.65;;;22.53;25.26
48718;BME280;34521;33.042;-96.586;2023-10-31T09:11:06;100937.64;;;21.97;25.70
48718;BME280;34521;33.042;-96.586;2023-10-31T09:13:31;100937.41;;;21.80;25.90
48718;BME280;34521;33.042;-96.586;2023-10-31T09:15:57;100935.28;;;22.01;25.82
48718;BME280;34521;33.042;-96.586;2023-10-31T09:18:21;100938.61;;;21.44;26.07
48718;BME280;34521;33.042;-96.586;2023-10-31T09:20:46;100933.48;;;20.80;26.57
48718;BME280;34521;33.042;-96.586;2023-10-31T09:23:11;100926.13;;;22.12;25.47
48718;BME280;34521;33.042;-96.586;2023-10-31T09:25:36;100925.07;;;22.64;25.03
48718;BME280;34521;33.042;-96.586;2023-10-31T09:28:01;100929.05;;;23.26;24.73
48718;BME280;34521;33.042;-96.586;2023-10-31T09:30:26;100927.13;;;23.06;24.67
48718;BME280;34521;33.042;-96.586;2023-10-31T09:32:51;100925.73;;;22.41;25.24
48718;BME280;34521;33.042;-96.586;2023-10-31T09:35:16;100929.29;;;21.91;25.49
48718;BME280;34521;33.042;-96.586;2023-10-31T09:37:42;100931.86;;;22.01;25.53
48718;BME280;34521;33.042;-96.586;2023-10-31T09:40:08;100933.70;;;21.86;25.71
48718;BME280;34521;33.042;-96.586;2023-10-31T09:42:31;100937.44;;;21.55;25.79
48718;BME280;34521;33.042;-96.586;2023-10-31T09:44:56;100939.52;;;21.49;25.77
48718;BME280;34521;33.042;-96.586;2023-10-31T09:47:22;100941.83;;;22.08;25.23
48718;BME280;34521;33.042;-96.586;2023-10-31T09:49:47;100941.75;;;22.41;25.08
48718;BME280;34521;33.042;-96.586;2023-10-31T09:52:12;100936.83;;;22.74;24.79
48718;BME280;34521;33.042;-96.586;2023-10-31T09:54:38;100939.05;;;22.81;24.73
48718;BME280;34521;33.042;-96.586;2023-10-31T09:57:02;100939.39;;;22.63;24.92
48718;BME280;34521;33.042;-96.586;2023-10-31T09:59:27;100940.77;;;22.26;25.29
48718;BME280;34521;33.042;-96.586;2023-10-31T10:01:52;100946.67;;;21.80;25.66
48718;BME280;34521;33.042;-96.586;2023-10-31T10:04:17;100947.23;;;21.89;25.53
48718;BME280;34521;33.042;-96.586;2023-10-31T10:06:51;100947.76;;;21.98;25.56
48718;BME280;34521;33.042;-96.586;2023-10-31T10:09:07;100948.03;;;21.45;25.78
48718;BME280;34521;33.042;-96.586;2023-10-31T10:11:34;100950.19;;;21.19;26.11
48718;BME280;34521;33.042;-96.586;2023-10-31T10:13:58;100948.63;;;21.97;25.46
48718;BME280;34521;33.042;-96.586;2023-10-31T10:16:30;100943.93;;;22.93;24.66
48718;BME280;34521;33.042;-96.586;2023-10-31T10:18:47;100948.68;;;23.02;24.53
48718;BME280;34521;33.042;-96.586;2023-10-31T10:21:12;100950.05;;;22.93;24.78
48718;BME280;34521;33.042;-96.586;2023-10-31T10:23:37;100955.87;;;22.53;25.01
48718;BME280;34521;33.042;-96.586;2023-10-31T10:26:03;100958.93;;;22.04;25.31
48718;BME280;34521;33.042;-96.586;2023-10-31T10:28:28;100957.71;;;22.13;25.21
48718;BME280;34521;33.042;-96.586;2023-10-31T10:30:53;100959.95;;;21.83;25.17
48718;BME280;34521;33.042;-96.586;2023-10-31T10:33:18;100964.74;;;21.50;25.59
48718;BME280;34521;33.042;-96.586;2023-10-31T10:35:43;100965.26;;;21.37;25.80
48718;BME280;34521;33.042;-96.586;2023-10-31T10:38:11;100960.21;;;22.52;24.81
48718;BME280;34521;33.042;-96.586;2023-10-31T10:40:32;100960.62;;;22.68;24.86
48718;BME280;34521;33.042;-96.586;2023-10-31T10:42:59;100964.21;;;22.97;24.45
48718;BME280;34521;33.042;-96.586;2023-10-31T10:45:23;100965.67;;;22.85;24.54
48718;BME280;34521;33.042;-96.586;2023-10-31T10:47:49;100968.36;;;22.93;24.35
48718;BME280;34521;33.042;-96.586;2023-10-31T10:50:13;100976.65;;;22.68;24.64
48718;BME280;34521;33.042;-96.586;2023-10-31T10:52:43;100978.31;;;22.21;25.07
48718;BME280;34521;33.042;-96.586;2023-10-31T10:55:08;100979.06;;;22.31;24.73
48718;BME280;34521;33.042;-96.586;2023-10-31T10:57:37;100985.27;;;21.78;25.21
48718;BME280;34521;33.042;-96.586;2023-10-31T10:59:57;100986.18;;;20.79;25.89
48718;BME280;34521;33.042;-96.586;2023-10-31T11:02:18;100987.04;;;22.08;24.98
48718;BME280;34521;33.042;-96.586;2023-10-31T11:04:44;100988.44;;;22.86;24.38
48718;BME280;34521;33.042;-96.586;2023-10-31T11:07:09;100991.33;;;22.89;24.25
48718;BME280;34521;33.042;-96.586;2023-10-31T11:09:33;100990.59;;;23.11;24.19
48718;BME280;34521;33.042;-96.586;2023-10-31T11:11:59;100994.31;;;23.30;24.07
48718;BME280;34521;33.042;-96.586;2023-10-31T11:14:23;100997.66;;;22.72;24.49
48718;BME280;34521;33.042;-96.586;2023-10-31T11:16:52;100998.89;;;22.72;24.46
48718;BME280;34521;33.042;-96.586;2023-10-31T11:19:13;101001.25;;;21.96;25.05
48718;BME280;34521;33.042;-96.586;2023-10-31T11:24:04;101003.89;;;21.27;25.53
48718;BME280;34521;33.042;-96.586;2023-10-31T11:26:29;101007.71;;;21.26;25.55
48718;BME280;34521;33.042;-96.586;2023-10-31T11:31:18;101010.77;;;22.59;24.77
48718;BME280;34521;33.042;-96.586;2023-10-31T11:33:43;101013.75;;;23.25;24.28
48718;BME280;34521;33.042;-96.586;2023-10-31T11:36:11;101012.93;;;23.10;24.18
48718;BME280;34521;33.042;-96.586;2023-10-31T11:38:36;101017.39;;;22.76;24.33
48718;BME280;34521;33.042;-96.586;2023-10-31T11:41:00;101018.64;;;22.86;24.35
48718;BME280;34521;33.042;-96.586;2023-10-31T11:43:24;101021.90;;;22.02;25.06
48718;BME280;34521;33.042;-96.586;2023-10-31T11:45:48;101017.66;;;22.00;25.00
48718;BME280;34521;33.042;-96.586;2023-10-31T11:48:14;101022.33;;;21.89;24.93
48718;BME280;34521;33.042;-96.586;2023-10-31T11:50:39;101024.00;;;21.41;25.37
48718;BME280;34521;33.042;-96.586;2023-10-31T11:53:05;101027.42;;;21.17;25.74
48718;BME280;34521;33.042;-96.586;2023-10-31T11:55:29;101033.97;;;21.94;24.87
48718;BME280;34521;33.042;-96.586;2023-10-31T11:57:54;101031.64;;;22.65;24.47
48718;BME280;34521;33.042;-96.586;2023-10-31T12:00:22;101038.62;;;23.30;24.21
48718;BME280;34521;33.042;-96.586;2023-10-31T12:02:57;101040.41;;;23.04;24.24
48718;BME280;34521;33.042;-96.586;2023-10-31T12:05:10;101043.30;;;22.98;24.08
48718;BME280;34521;33.042;-96.586;2023-10-31T12:07:42;101041.38;;;22.78;24.26
48718;BME280;34521;33.042;-96.586;2023-10-31T12:09:59;101042.97;;;22.65;24.16
48718;BME280;34521;33.042;-96.586;2023-10-31T12:12:30;101044.25;;;21.93;24.84
48718;BME280;34521;33.042;-96.586;2023-10-31T12:14:49;101045.73;;;22.11;24.57
48718;BME280;34521;33.042;-96.586;2023-10-31T12:17:14;101046.92;;;21.19;25.40
48718;BME280;34521;33.042;-96.586;2023-10-31T12:19:39;101049.88;;;21.09;25.54
48718;BME280;34521;33.042;-96.586;2023-10-31T12:22:14;101054.04;;;21.35;25.31
48718;BME280;34521;33.042;-96.586;2023-10-31T12:24:29;101062.94;;;20.23;26.25